sensor_id;sensor_type;location;lat;lon;timestamp;P1;durP1;ratioP1;P2;durP2;ratioP2
37847;SDS011;23688;33.130;-117.188;2022-10-19T00:01:22;4.53;;;3.08;;
37847;SDS011;23688;33.130;-117.188;2022-10-19T00:03:49;7.30;;;3.13;;
37847;SDS011;23688;33.130;-117.188;2022-10-19T00:06:18;4.82;;;3.13;;
37847;SDS011;23688;33.130;-117.188;2022-10-19T00:08:50;7.15;;;3.22;;
37847;SDS011;23688;33.130;-117.188;2022-10-19T00:11:18;5.75;;;3.55;;
37847;SDS011;23688;33.130;-117.188;2022-10-19T00:13:45;4.10;;;3.13;;
37847;SDS011;23688;33.130;-117.188;2022-10-19T00:16:12;11.13;;;3.60;;
37847;SDS011;23688;33.130;-117.188;2022-10-19T00:18:40;8.57;;;3.45;;
37847;SDS011;23688;33.130;-117.188;2022-10-19T00:21:11;5.22;;;3.65;;
37847;SDS011;23688;33.130;-117.188;2022-10-19T00:23:40;5.47;;;3.60;;
37847;SDS011;23688;33.130;-117.188;2022-10-19T00:26:07;5.38;;;3.10;;
37847;SDS011;23688;33.130;-117.188;2022-10-19T00:28:33;11.55;;;3.83;;
37847;SDS011;23688;33.130;-117.188;2022-10-19T00:31:03;5.15;;;3.40;;
37847;SDS011;23688;33.130;-117.188;2022-10-19T00:33:33;4.82;;;3.63;;
37847;SDS011;23688;33.130;-117.188;2022-10-19T00:35:59;5.22;;;2.65;;
37847;SDS011;23688;33.130;-117.188;2022-10-19T00:38:26;5.45;;;2.92;;
37847;SDS011;23688;33.130;-117.188;2022-10-19T00:40:52;4.90;;;2.75;;
37847;SDS011;23688;33.130;-117.188;2022-10-19T00:43:20;8.77;;;3.45;;
37847;SDS011;23688;33.130;-117.188;2022-10-19T00:45:49;7.90;;;3.28;;
37847;SDS011;23688;33.130;-117.188;2022-10-19T00:48:36;6.57;;;3.08;;
37847;SDS011;23688;33.130;-117.188;2022-10-19T00:51:02;8.10;;;2.90;;
37847;SDS011;23688;33.130;-117.188;2022-10-19T00:53:28;4.35;;;2.58;;
37847;SDS011;23688;33.130;-117.188;2022-10-19T00:55:56;7.78;;;2.35;;
37847;SDS011;23688;33.130;-117.188;2022-10-19T00:58:27;8.02;;;3.08;;
37847;SDS011;23688;33.130;-117.188;2022-10-19T01:00:55;6.20;;;2.50;;
37847;SDS011;23688;33.130;-117.188;2022-10-19T01:03:24;4.50;;;2.88;;
37847;SDS011;23688;33.130;-117.188;2022-10-19T01:05:51;4.00;;;2.60;;
37847;SDS011;23688;33.130;-117.188;2022-10-19T01:08:18;5.18;;;2.70;;
37847;SDS011;23688;33.130;-117.188;2022-10-19T01:10:51;4.50;;;2.83;;
37847;SDS011;23688;33.130;-117.188;2022-10-19T01:13:35;3.72;;;2.55;;
37847;SDS011;23688;33.130;-117.188;2022-10-19T01:17:31;6.45;;;2.67;;
37847;SDS011;23688;33.130;-117.188;2022-10-19T01:22:55;5.22;;;3.00;;
37847;SDS011;23688;33.130;-117.188;2022-10-19T01:31:30;5.13;;;3.15;;
37847;SDS011;23688;33.130;-117.188;2022-10-19T01:34:28;6.65;;;2.30;;
37847;SDS011;23688;33.130;-117.188;2022-10-19T01:37:09;6.63;;;3.40;;
37847;SDS011;23688;33.130;-117.188;2022-10-19T01:42:25;4.95;;;2.50;;
37847;SDS011;23688;33.130;-117.188;2022-10-19T01:45:25;6.45;;;2.58;;
37847;SDS011;23688;33.130;-117.188;2022-10-19T01:48:06;4.72;;;2.45;;
37847;SDS011;23688;33.130;-117.188;2022-10-19T01:50:49;8.23;;;2.73;;
37847;SDS011;23688;33.130;-117.188;2022-10-19T01:53:17;7.55;;;2.95;;
37847;SDS011;23688;33.130;-117.188;2022-10-19T01:55:46;7.28;;;2.47;;
37847;SDS011;23688;33.130;-117.188;2022-10-19T01:58:16;3.78;;;1.92;;
37847;SDS011;23688;33.130;-117.188;2022-10-19T02:00:49;3.92;;;2.00;;
37847;SDS011;23688;33.130;-117.188;2022-10-19T02:03:19;2.47;;;1.90;;
37847;SDS011;23688;33.130;-117.188;2022-10-19T02:05:48;4.95;;;2.20;;
37847;SDS011;23688;33.130;-117.188;2022-10-19T02:08:19;3.63;;;1.55;;
37847;SDS011;23688;33.130;-117.188;2022-10-19T02:10:59;3.88;;;2.00;;
37847;SDS011;23688;33.130;-117.188;2022-10-19T02:13:26;4.55;;;2.33;;
37847;SDS011;23688;33.130;-117.188;2022-10-19T02:18:31;2.38;;;1.70;;
37847;SDS011;23688;33.130;-117.188;2022-10-19T02:21:02;3.40;;;2.00;;
37847;SDS011;23688;33.130;-117.188;2022-10-19T02:23:30;4.13;;;1.77;;
37847;SDS011;23688;33.130;-117.188;2022-10-19T02:25:56;3.85;;;1.77;;
37847;SDS011;23688;33.130;-117.188;2022-10-19T02:28:23;8.13;;;2.10;;
37847;SDS011;23688;33.130;-117.188;2022-10-19T02:30:50;4.32;;;1.63;;
37847;SDS011;23688;33.130;-117.188;2022-10-19T02:33:17;4.85;;;1.80;;
37847;SDS011;23688;33.130;-117.188;2022-10-19T02:35:43;3.05;;;1.85;;
37847;SDS011;23688;33.130;-117.188;2022-10-19T02:38:12;2.80;;;1.80;;
37847;SDS011;23688;33.130;-117.188;2022-10-19T02:40:47;5.93;;;2.00;;
37847;SDS011;23688;33.130;-117.188;2022-10-19T02:43:36;2.92;;;2.05;;
37847;SDS011;23688;33.130;-117.188;2022-10-19T02:46:12;6.63;;;1.98;;
37847;SDS011;23688;33.130;-117.188;2022-10-19T02:49:01;3.67;;;1.80;;
37847;SDS011;23688;33.130;-117.188;2022-10-19T02:51:39;4.95;;;1.98;;
37847;SDS011;23688;33.130;-117.188;2022-10-19T02:54:20;2.67;;;1.80;;
37847;SDS011;23688;33.130;-117.188;2022-10-19T02:56:48;3.73;;;2.03;;
37847;SDS011;23688;33.130;-117.188;2022-10-19T02:59:14;3.47;;;1.48;;
37847;SDS011;23688;33.130;-117.188;2022-10-19T03:01:41;4.78;;;1.80;;
37847;SDS011;23688;33.130;-117.188;2022-10-19T03:04:07;2.58;;;1.52;;
37847;SDS011;23688;33.130;-117.188;2022-10-19T03:06:34;2.55;;;1.80;;
37847;SDS011;23688;33.130;-117.188;2022-10-19T03:09:00;3.15;;;1.90;;
37847;SDS011;23688;33.130;-117.188;2022-10-19T03:11:26;5.10;;;2.40;;
37847;SDS011;23688;33.130;-117.188;2022-10-19T03:13:53;4.75;;;2.33;;
37847;SDS011;23688;33.130;-117.188;2022-10-19T03:16:19;6.60;;;2.30;;
37847;SDS011;23688;33.130;-117.188;2022-10-19T03:18:46;3.40;;;2.00;;
37847;SDS011;23688;33.130;-117.188;2022-10-19T03:21:13;7.05;;;2.10;;
37847;SDS011;23688;33.130;-117.188;2022-10-19T03:23:41;5.18;;;1.80;;
37847;SDS011;23688;33.130;-117.188;2022-10-19T03:26:09;4.43;;;2.38;;
37847;SDS011;23688;33.130;-117.188;2022-10-19T03:28:39;8.27;;;2.15;;
37847;SDS011;23688;33.130;-117.188;2022-10-19T03:31:05;3.33;;;2.22;;
37847;SDS011;23688;33.130;-117.188;2022-10-19T03:33:31;3.63;;;2.20;;
37847;SDS011;23688;33.130;-117.188;2022-10-19T03:38:49;2.65;;;1.83;;
37847;SDS011;23688;33.130;-117.188;2022-10-19T03:41:17;5.40;;;2.30;;
37847;SDS011;23688;33.130;-117.188;2022-10-19T03:43:45;4.45;;;1.60;;
37847;SDS011;23688;33.130;-117.188;2022-10-19T03:46:11;3.50;;;1.95;;
37847;SDS011;23688;33.130;-117.188;2022-10-19T03:48:37;5.68;;;1.80;;
37847;SDS011;23688;33.130;-117.188;2022-10-19T03:51:05;5.10;;;2.03;;
37847;SDS011;23688;33.130;-117.188;2022-10-19T03:53:33;4.65;;;2.28;;
37847;SDS011;23688;33.130;-117.188;2022-10-19T03:56:01;7.65;;;2.00;;
37847;SDS011;23688;33.130;-117.188;2022-10-19T03:58:28;2.33;;;1.85;;
37847;SDS011;23688;33.130;-117.188;2022-10-19T04:00:56;4.82;;;1.45;;
37847;SDS011;23688;33.130;-117.188;2022-10-19T04:03:22;2.17;;;1.60;;
37847;SDS011;23688;33.130;-117.188;2022-10-19T04:05:49;2.17;;;1.60;;
37847;SDS011;23688;33.130;-117.188;2022-10-19T04:08:17;1.67;;;1.50;;
37847;SDS011;23688;33.130;-117.188;2022-10-19T04:10:43;1.60;;;1.43;;
37847;SDS011;23688;33.130;-117.188;2022-10-19T04:13:10;1.30;;;1.17;;
37847;SDS011;23688;33.130;-117.188;2022-10-19T04:15:43;4.70;;;1.70;;
37847;SDS011;23688;33.130;-117.188;2022-10-19T04:18:20;2.83;;;1.25;;
37847;SDS011;23688;33.130;-117.188;2022-10-19T04:20:46;2.80;;;1.58;;
37847;SDS011;23688;33.130;-117.188;2022-10-19T04:23:15;3.92;;;1.20;;
37847;SDS011;23688;33.130;-117.188;2022-10-19T04:25:41;2.75;;;1.35;;
37847;SDS011;23688;33.130;-117.188;2022-10-19T04:28:15;3.38;;;1.38;;
37847;SDS011;23688;33.130;-117.188;2022-10-19T04:30:43;3.85;;;1.20;;
37847;SDS011;23688;33.130;-117.188;2022-10-19T04:33:12;6.47;;;1.30;;
37847;SDS011;23688;33.130;-117.188;2022-10-19T04:35:39;1.67;;;1.20;;
37847;SDS011;23688;33.130;-117.188;2022-10-19T04:38:05;1.88;;;1.23;;
37847;SDS011;23688;33.130;-117.188;2022-10-19T04:40:43;3.15;;;1.23;;
37847;SDS011;23688;33.130;-117.188;2022-10-19T04:43:10;2.33;;;1.20;;
37847;SDS011;23688;33.130;-117.188;2022-10-19T04:45:36;1.63;;;0.93;;
37847;SDS011;23688;33.130;-117.188;2022-10-19T04:48:02;2.28;;;0.93;;
37847;SDS011;23688;33.130;-117.188;2022-10-19T04:50:29;1.83;;;1.08;;
37847;SDS011;23688;33.130;-117.188;2022-10-19T04:52:56;1.30;;;1.00;;
37847;SDS011;23688;33.130;-117.188;2022-10-19T04:55:22;2.63;;;0.93;;
37847;SDS011;23688;33.130;-117.188;2022-10-19T04:57:48;5.50;;;1.25;;
37847;SDS011;23688;33.130;-117.188;2022-10-19T05:00:16;3.45;;;0.90;;
37847;SDS011;23688;33.130;-117.188;2022-10-19T05:02:45;5.65;;;1.77;;
37847;SDS011;23688;33.130;-117.188;2022-10-19T05:05:12;9.23;;;3.08;;
37847;SDS011;23688;33.130;-117.188;2022-10-19T05:07:39;4.95;;;2.92;;
37847;SDS011;23688;33.130;-117.188;2022-10-19T05:10:06;7.55;;;3.17;;
37847;SDS011;23688;33.130;-117.188;2022-10-19T05:12:34;8.52;;;3.17;;
37847;SDS011;23688;33.130;-117.188;2022-10-19T05:15:00;9.93;;;3.40;;
37847;SDS011;23688;33.130;-117.188;2022-10-19T05:17:31;4.65;;;2.70;;
37847;SDS011;23688;33.130;-117.188;2022-10-19T05:19:58;5.72;;;2.50;;
37847;SDS011;23688;33.130;-117.188;2022-10-19T05:22:24;5.15;;;2.70;;
37847;SDS011;23688;33.130;-117.188;2022-10-19T05:24:50;7.20;;;2.92;;
37847;SDS011;23688;33.130;-117.188;2022-10-19T05:27:16;6.05;;;2.28;;
37847;SDS011;23688;33.130;-117.188;2022-10-19T05:29:43;5.50;;;2.22;;
37847;SDS011;23688;33.130;-117.188;2022-10-19T05:32:09;5.72;;;1.75;;
37847;SDS011;23688;33.130;-117.188;2022-10-19T05:34:35;9.57;;;2.70;;
37847;SDS011;23688;33.130;-117.188;2022-10-19T05:37:02;6.75;;;2.47;;
37847;SDS011;23688;33.130;-117.188;2022-10-19T05:39:31;6.97;;;2.83;;
37847;SDS011;23688;33.130;-117.188;2022-10-19T05:41:58;12.00;;;4.32;;
37847;SDS011;23688;33.130;-117.188;2022-10-19T05:44:25;9.90;;;3.13;;
37847;SDS011;23688;33.130;-117.188;2022-10-19T05:46:52;6.05;;;2.30;;
37847;SDS011;23688;33.130;-117.188;2022-10-19T05:49:19;7.18;;;3.25;;
37847;SDS011;23688;33.130;-117.188;2022-10-19T05:51:46;4.43;;;2.03;;
37847;SDS011;23688;33.130;-117.188;2022-10-19T05:54:13;9.00;;;2.35;;
37847;SDS011;23688;33.130;-117.188;2022-10-19T05:56:40;4.25;;;2.30;;
37847;SDS011;23688;33.130;-117.188;2022-10-19T05:59:07;7.53;;;2.00;;
37847;SDS011;23688;33.130;-117.188;2022-10-19T06:01:35;4.13;;;2.28;;
37847;SDS011;23688;33.130;-117.188;2022-10-19T06:04:02;2.83;;;1.80;;
37847;SDS011;23688;33.130;-117.188;2022-10-19T06:06:29;4.57;;;2.35;;
37847;SDS011;23688;33.130;-117.188;2022-10-19T06:08:56;3.80;;;2.05;;
37847;SDS011;23688;33.130;-117.188;2022-10-19T06:11:25;4.80;;;2.35;;
37847;SDS011;23688;33.130;-117.188;2022-10-19T06:13:54;5.07;;;2.47;;
37847;SDS011;23688;33.130;-117.188;2022-10-19T06:16:22;4.80;;;1.92;;
37847;SDS011;23688;33.130;-117.188;2022-10-19T06:18:52;5.13;;;2.50;;
37847;SDS011;23688;33.130;-117.188;2022-10-19T06:21:21;6.60;;;2.50;;
37847;SDS011;23688;33.130;-117.188;2022-10-19T06:23:54;3.97;;;1.85;;
37847;SDS011;23688;33.130;-117.188;2022-10-19T06:26:23;3.72;;;1.77;;
37847;SDS011;23688;33.130;-117.188;2022-10-19T06:28:53;2.50;;;1.60;;
37847;SDS011;23688;33.130;-117.188;2022-10-19T06:31:22;3.95;;;1.58;;
37847;SDS011;23688;33.130;-117.188;2022-10-19T06:33:48;4.03;;;1.20;;
37847;SDS011;23688;33.130;-117.188;2022-10-19T06:36:18;5.72;;;1.73;;
37847;SDS011;23688;33.130;-117.188;2022-10-19T06:38:47;4.40;;;1.58;;
37847;SDS011;23688;33.130;-117.188;2022-10-19T06:41:14;5.07;;;1.92;;
37847;SDS011;23688;33.130;-117.188;2022-10-19T06:43:41;3.13;;;1.50;;
37847;SDS011;23688;33.130;-117.188;2022-10-19T06:46:09;5.95;;;1.10;;
37847;SDS011;23688;33.130;-117.188;2022-10-19T06:48:39;1.35;;;1.05;;
37847;SDS011;23688;33.130;-117.188;2022-10-19T06:51:06;2.90;;;0.88;;
37847;SDS011;23688;33.130;-117.188;2022-10-19T06:53:34;3.83;;;0.77;;
37847;SDS011;23688;33.130;-117.188;2022-10-19T06:56:03;2.22;;;1.17;;
37847;SDS011;23688;33.130;-117.188;2022-10-19T06:58:33;7.28;;;1.20;;
37847;SDS011;23688;33.130;-117.188;2022-10-19T07:01:01;3.70;;;0.98;;
37847;SDS011;23688;33.130;-117.188;2022-10-19T07:03:28;1.77;;;1.00;;
37847;SDS011;23688;33.130;-117.188;2022-10-19T07:05:55;5.97;;;1.20;;
37847;SDS011;23688;33.130;-117.188;2022-10-19T07:08:23;2.35;;;1.58;;
37847;SDS011;23688;33.130;-117.188;2022-10-19T07:10:52;1.88;;;1.13;;
37847;SDS011;23688;33.130;-117.188;2022-10-19T07:13:20;3.60;;;1.20;;
37847;SDS011;23688;33.130;-117.188;2022-10-19T07:15:47;1.38;;;1.10;;
37847;SDS011;23688;33.130;-117.188;2022-10-19T07:18:14;3.22;;;1.25;;
37847;SDS011;23688;33.130;-117.188;2022-10-19T07:20:40;1.48;;;0.98;;
37847;SDS011;23688;33.130;-117.188;2022-10-19T07:23:07;4.40;;;1.52;;
37847;SDS011;23688;33.130;-117.188;2022-10-19T07:25:35;2.83;;;0.82;;
37847;SDS011;23688;33.130;-117.188;2022-10-19T07:28:01;2.70;;;1.70;;
37847;SDS011;23688;33.130;-117.188;2022-10-19T07:30:28;2.15;;;1.25;;
37847;SDS011;23688;33.130;-117.188;2022-10-19T07:32:54;4.82;;;1.20;;
37847;SDS011;23688;33.130;-117.188;2022-10-19T07:35:20;2.75;;;1.05;;
37847;SDS011;23688;33.130;-117.188;2022-10-19T07:37:46;1.50;;;0.90;;
37847;SDS011;23688;33.130;-117.188;2022-10-19T07:40:13;1.83;;;0.82;;
37847;SDS011;23688;33.130;-117.188;2022-10-19T07:42:39;1.80;;;0.65;;
37847;SDS011;23688;33.130;-117.188;2022-10-19T07:45:06;4.00;;;1.40;;
37847;SDS011;23688;33.130;-117.188;2022-10-19T07:47:32;1.80;;;1.00;;
37847;SDS011;23688;33.130;-117.188;2022-10-19T07:49:59;2.20;;;0.90;;
37847;SDS011;23688;33.130;-117.188;2022-10-19T07:52:25;2.88;;;0.80;;
37847;SDS011;23688;33.130;-117.188;2022-10-19T07:54:52;2.10;;;0.90;;
37847;SDS011;23688;33.130;-117.188;2022-10-19T07:57:19;2.63;;;1.20;;
37847;SDS011;23688;33.130;-117.188;2022-10-19T07:59:46;7.78;;;1.25;;
37847;SDS011;23688;33.130;-117.188;2022-10-19T08:02:13;7.68;;;2.55;;
37847;SDS011;23688;33.130;-117.188;2022-10-19T08:04:41;5.15;;;1.60;;
37847;SDS011;23688;33.130;-117.188;2022-10-19T08:07:08;2.65;;;1.05;;
37847;SDS011;23688;33.130;-117.188;2022-10-19T08:09:34;4.45;;;1.15;;
37847;SDS011;23688;33.130;-117.188;2022-10-19T08:12:01;1.35;;;0.98;;
37847;SDS011;23688;33.130;-117.188;2022-10-19T08:14:28;3.33;;;1.00;;
37847;SDS011;23688;33.130;-117.188;2022-10-19T08:16:57;3.95;;;1.20;;
37847;SDS011;23688;33.130;-117.188;2022-10-19T08:19:24;1.33;;;1.08;;
37847;SDS011;23688;33.130;-117.188;2022-10-19T08:21:50;1.38;;;0.93;;
37847;SDS011;23688;33.130;-117.188;2022-10-19T08:24:17;3.13;;;1.42;;
37847;SDS011;23688;33.130;-117.188;2022-10-19T08:26:45;1.40;;;1.20;;
37847;SDS011;23688;33.130;-117.188;2022-10-19T08:29:13;1.95;;;1.13;;
37847;SDS011;23688;33.130;-117.188;2022-10-19T08:31:41;35.97;;;5.65;;
37847;SDS011;23688;33.130;-117.188;2022-10-19T08:34:08;15.07;;;2.97;;
37847;SDS011;23688;33.130;-117.188;2022-10-19T08:36:35;7.28;;;1.58;;
37847;SDS011;23688;33.130;-117.188;2022-10-19T08:39:03;8.68;;;1.77;;
37847;SDS011;23688;33.130;-117.188;2022-10-19T08:41:32;6.30;;;1.70;;
37847;SDS011;23688;33.130;-117.188;2022-10-19T08:49:57;4.78;;;1.10;;
37847;SDS011;23688;33.130;-117.188;2022-10-19T08:52:31;6.85;;;1.02;;
37847;SDS011;23688;33.130;-117.188;2022-10-19T08:55:02;1.40;;;0.60;;
37847;SDS011;23688;33.130;-117.188;2022-10-19T08:57:41;3.35;;;1.20;;
37847;SDS011;23688;33.130;-117.188;2022-10-19T09:03:15;1.10;;;0.88;;
37847;SDS011;23688;33.130;-117.188;2022-10-19T09:08:18;1.40;;;1.00;;
37847;SDS011;23688;33.130;-117.188;2022-10-19T09:10:46;1.98;;;0.82;;
37847;SDS011;23688;33.130;-117.188;2022-10-19T09:13:38;1.80;;;0.70;;
37847;SDS011;23688;33.130;-117.188;2022-10-19T09:16:09;1.08;;;0.60;;
37847;SDS011;23688;33.130;-117.188;2022-10-19T09:18:38;0.95;;;0.55;;
37847;SDS011;23688;33.130;-117.188;2022-10-19T09:21:08;0.90;;;0.70;;
37847;SDS011;23688;33.130;-117.188;2022-10-19T09:26:29;1.48;;;1.20;;
37847;SDS011;23688;33.130;-117.188;2022-10-19T09:31:55;2.72;;;0.93;;
37847;SDS011;23688;33.130;-117.188;2022-10-19T09:37:27;1.52;;;1.10;;
37847;SDS011;23688;33.130;-117.188;2022-10-19T09:39:54;1.25;;;0.88;;
37847;SDS011;23688;33.130;-117.188;2022-10-19T09:42:26;1.77;;;0.75;;
37847;SDS011;23688;33.130;-117.188;2022-10-19T09:45:10;2.63;;;0.73;;
37847;SDS011;23688;33.130;-117.188;2022-10-19T09:48:05;1.58;;;0.77;;
37847;SDS011;23688;33.130;-117.188;2022-10-19T09:51:00;0.95;;;0.65;;
37847;SDS011;23688;33.130;-117.188;2022-10-19T09:53:28;2.33;;;0.98;;
37847;SDS011;23688;33.130;-117.188;2022-10-19T09:55:59;1.80;;;0.60;;
37847;SDS011;23688;33.130;-117.188;2022-10-19T09:58:32;1.25;;;0.90;;
37847;SDS011;23688;33.130;-117.188;2022-10-19T10:01:00;0.82;;;0.60;;
37847;SDS011;23688;33.130;-117.188;2022-10-19T10:03:34;3.60;;;0.70;;
37847;SDS011;23688;33.130;-117.188;2022-10-19T10:06:09;4.32;;;0.82;;
37847;SDS011;23688;33.130;-117.188;2022-10-19T10:08:47;1.13;;;0.90;;
37847;SDS011;23688;33.130;-117.188;2022-10-19T10:11:23;0.70;;;0.68;;
37847;SDS011;23688;33.130;-117.188;2022-10-19T10:13:53;1.90;;;0.65;;
37847;SDS011;23688;33.130;-117.188;2022-10-19T10:16:21;0.93;;;0.60;;
37847;SDS011;23688;33.130;-117.188;2022-10-19T10:18:54;2.25;;;0.50;;
37847;SDS011;23688;33.130;-117.188;2022-10-19T10:21:24;1.10;;;0.82;;
37847;SDS011;23688;33.130;-117.188;2022-10-19T10:26:45;4.50;;;0.80;;
37847;SDS011;23688;33.130;-117.188;2022-10-19T10:31:59;0.80;;;0.73;;
37847;SDS011;23688;33.130;-117.188;2022-10-19T10:34:41;1.30;;;0.80;;
37847;SDS011;23688;33.130;-117.188;2022-10-19T10:40:14;2.65;;;0.88;;
37847;SDS011;23688;33.130;-117.188;2022-10-19T10:43:00;2.25;;;1.48;;
37847;SDS011;23688;33.130;-117.188;2022-10-19T10:50:58;3.67;;;1.10;;
37847;SDS011;23688;33.130;-117.188;2022-10-19T10:56:04;1.95;;;1.02;;
37847;SDS011;23688;33.130;-117.188;2022-10-19T10:58:53;3.80;;;1.10;;
37847;SDS011;23688;33.130;-117.188;2022-10-19T11:01:26;2.85;;;0.90;;
37847;SDS011;23688;33.130;-117.188;2022-10-19T11:04:04;1.40;;;0.80;;
37847;SDS011;23688;33.130;-117.188;2022-10-19T11:06:36;2.20;;;0.73;;
37847;SDS011;23688;33.130;-117.188;2022-10-19T11:11:54;1.02;;;0.65;;
37847;SDS011;23688;33.130;-117.188;2022-10-19T11:17:17;0.85;;;0.82;;
37847;SDS011;23688;33.130;-117.188;2022-10-19T11:19:44;1.15;;;0.90;;
37847;SDS011;23688;33.130;-117.188;2022-10-19T11:25:19;0.73;;;0.63;;
37847;SDS011;23688;33.130;-117.188;2022-10-19T11:28:09;0.65;;;0.65;;
37847;SDS011;23688;33.130;-117.188;2022-10-19T11:33:37;1.00;;;0.73;;
37847;SDS011;23688;33.130;-117.188;2022-10-19T11:39:38;3.17;;;1.50;;
37847;SDS011;23688;33.130;-117.188;2022-10-19T11:53:28;1.30;;;0.80;;
37847;SDS011;23688;33.130;-117.188;2022-10-19T12:07:10;4.38;;;1.42;;
37847;SDS011;23688;33.130;-117.188;2022-10-19T12:15:02;2.45;;;1.25;;
37847;SDS011;23688;33.130;-117.188;2022-10-19T12:17:36;2.45;;;0.75;;
37847;SDS011;23688;33.130;-117.188;2022-10-19T12:20:13;2.13;;;0.75;;
37847;SDS011;23688;33.130;-117.188;2022-10-19T12:22:50;1.20;;;0.50;;
37847;SDS011;23688;33.130;-117.188;2022-10-19T12:25:17;4.43;;;0.98;;
37847;SDS011;23688;33.130;-117.188;2022-10-19T12:27:44;1.67;;;1.02;;
37847;SDS011;23688;33.130;-117.188;2022-10-19T12:30:16;3.00;;;0.88;;
37847;SDS011;23688;33.130;-117.188;2022-10-19T12:32:59;2.05;;;0.90;;
37847;SDS011;23688;33.130;-117.188;2022-10-19T12:35:54;2.78;;;0.70;;
37847;SDS011;23688;33.130;-117.188;2022-10-19T12:46:45;3.25;;;1.20;;
37847;SDS011;23688;33.130;-117.188;2022-10-19T12:51:51;3.95;;;1.00;;
37847;SDS011;23688;33.130;-117.188;2022-10-19T12:54:29;2.38;;;0.93;;
37847;SDS011;23688;33.130;-117.188;2022-10-19T12:56:57;4.90;;;1.00;;
37847;SDS011;23688;33.130;-117.188;2022-10-19T12:59:28;11.05;;;1.35;;
37847;SDS011;23688;33.130;-117.188;2022-10-19T13:01:56;1.35;;;1.00;;
37847;SDS011;23688;33.130;-117.188;2022-10-19T13:04:24;4.80;;;1.30;;
37847;SDS011;23688;33.130;-117.188;2022-10-19T13:06:58;4.40;;;0.80;;
37847;SDS011;23688;33.130;-117.188;2022-10-19T13:09:34;2.47;;;1.20;;
37847;SDS011;23688;33.130;-117.188;2022-10-19T13:17:36;4.95;;;1.58;;
37847;SDS011;23688;33.130;-117.188;2022-10-19T13:25:29;2.05;;;0.70;;
37847;SDS011;23688;33.130;-117.188;2022-10-19T13:27:59;7.93;;;1.30;;
37847;SDS011;23688;33.130;-117.188;2022-10-19T13:36:06;4.15;;;1.00;;
37847;SDS011;23688;33.130;-117.188;2022-10-19T13:41:21;4.00;;;1.05;;
37847;SDS011;23688;33.130;-117.188;2022-10-19T13:49:54;2.67;;;0.82;;
37847;SDS011;23688;33.130;-117.188;2022-10-19T14:01:26;6.75;;;0.90;;
37847;SDS011;23688;33.130;-117.188;2022-10-19T14:04:05;2.33;;;0.90;;
37847;SDS011;23688;33.130;-117.188;2022-10-19T14:06:53;1.83;;;1.05;;
37847;SDS011;23688;33.130;-117.188;2022-10-19T14:11:58;3.88;;;0.70;;
37847;SDS011;23688;33.130;-117.188;2022-10-19T14:14:38;2.55;;;0.95;;
37847;SDS011;23688;33.130;-117.188;2022-10-19T14:17:41;4.60;;;1.23;;
37847;SDS011;23688;33.130;-117.188;2022-10-19T14:22:53;7.38;;;1.67;;
37847;SDS011;23688;33.130;-117.188;2022-10-19T14:25:21;2.70;;;1.20;;
37847;SDS011;23688;33.130;-117.188;2022-10-19T14:27:51;5.55;;;1.17;;
37847;SDS011;23688;33.130;-117.188;2022-10-19T14:30:24;7.05;;;1.58;;
37847;SDS011;23688;33.130;-117.188;2022-10-19T14:32:56;6.28;;;1.17;;
37847;SDS011;23688;33.130;-117.188;2022-10-19T14:35:28;10.67;;;1.67;;
37847;SDS011;23688;33.130;-117.188;2022-10-19T14:37:57;7.18;;;1.52;;
37847;SDS011;23688;33.130;-117.188;2022-10-19T14:42:51;3.53;;;1.40;;
37847;SDS011;23688;33.130;-117.188;2022-10-19T14:45:18;5.45;;;1.52;;
37847;SDS011;23688;33.130;-117.188;2022-10-19T14:47:51;5.10;;;1.55;;
37847;SDS011;23688;33.130;-117.188;2022-10-19T14:51:00;8.85;;;1.90;;
37847;SDS011;23688;33.130;-117.188;2022-10-19T15:01:48;12.35;;;1.70;;
37847;SDS011;23688;33.130;-117.188;2022-10-19T15:04:18;8.48;;;2.30;;
37847;SDS011;23688;33.130;-117.188;2022-10-19T15:06:48;7.38;;;1.80;;
37847;SDS011;23688;33.130;-117.188;2022-10-19T15:09:34;8.10;;;2.28;;
37847;SDS011;23688;33.130;-117.188;2022-10-19T15:12:14;26.17;;;3.90;;
37847;SDS011;23688;33.130;-117.188;2022-10-19T15:14:43;28.38;;;3.95;;
37847;SDS011;23688;33.130;-117.188;2022-10-19T15:17:20;22.00;;;3.72;;
37847;SDS011;23688;33.130;-117.188;2022-10-19T15:19:55;17.20;;;3.38;;
37847;SDS011;23688;33.130;-117.188;2022-10-19T15:27:30;31.52;;;4.55;;
37847;SDS011;23688;33.130;-117.188;2022-10-19T15:30:00;42.25;;;4.95;;
37847;SDS011;23688;33.130;-117.188;2022-10-19T15:32:36;37.15;;;4.88;;
37847;SDS011;23688;33.130;-117.188;2022-10-19T15:35:10;29.38;;;5.13;;
37847;SDS011;23688;33.130;-117.188;2022-10-19T15:37:39;22.52;;;3.65;;
37847;SDS011;23688;33.130;-117.188;2022-10-19T15:40:08;23.75;;;3.72;;
37847;SDS011;23688;33.130;-117.188;2022-10-19T15:42:40;49.63;;;4.10;;
37847;SDS011;23688;33.130;-117.188;2022-10-19T15:45:29;28.17;;;4.93;;
37847;SDS011;23688;33.130;-117.188;2022-10-19T15:50:53;36.72;;;5.53;;
37847;SDS011;23688;33.130;-117.188;2022-10-19T15:53:21;43.42;;;4.13;;
37847;SDS011;23688;33.130;-117.188;2022-10-19T15:55:48;27.60;;;4.22;;
37847;SDS011;23688;33.130;-117.188;2022-10-19T15:58:14;19.80;;;3.47;;
37847;SDS011;23688;33.130;-117.188;2022-10-19T16:00:41;25.58;;;3.28;;
37847;SDS011;23688;33.130;-117.188;2022-10-19T16:03:07;15.05;;;3.17;;
37847;SDS011;23688;33.130;-117.188;2022-10-19T16:05:34;14.55;;;2.22;;
37847;SDS011;23688;33.130;-117.188;2022-10-19T16:08:01;15.48;;;3.00;;
37847;SDS011;23688;33.130;-117.188;2022-10-19T16:10:28;13.73;;;2.67;;
37847;SDS011;23688;33.130;-117.188;2022-10-19T16:12:54;27.98;;;3.83;;
37847;SDS011;23688;33.130;-117.188;2022-10-19T16:15:21;15.07;;;2.83;;
37847;SDS011;23688;33.130;-117.188;2022-10-19T16:17:49;14.35;;;2.55;;
37847;SDS011;23688;33.130;-117.188;2022-10-19T16:20:20;13.45;;;2.45;;
37847;SDS011;23688;33.130;-117.188;2022-10-19T16:25:14;13.52;;;1.73;;
37847;SDS011;23688;33.130;-117.188;2022-10-19T16:27:41;3.28;;;1.30;;
37847;SDS011;23688;33.130;-117.188;2022-10-19T16:30:08;4.00;;;1.17;;
37847;SDS011;23688;33.130;-117.188;2022-10-19T16:32:35;3.78;;;1.23;;
37847;SDS011;23688;33.130;-117.188;2022-10-19T16:35:01;2.45;;;0.88;;
37847;SDS011;23688;33.130;-117.188;2022-10-19T16:37:28;3.20;;;0.77;;
37847;SDS011;23688;33.130;-117.188;2022-10-19T16:39:54;5.68;;;0.90;;
37847;SDS011;23688;33.130;-117.188;2022-10-19T16:42:21;5.13;;;1.60;;
37847;SDS011;23688;33.130;-117.188;2022-10-19T16:44:47;2.20;;;0.93;;
37847;SDS011;23688;33.130;-117.188;2022-10-19T16:47:13;3.63;;;1.13;;
37847;SDS011;23688;33.130;-117.188;2022-10-19T16:49:41;1.30;;;0.90;;
37847;SDS011;23688;33.130;-117.188;2022-10-19T16:52:10;0.85;;;0.60;;
37847;SDS011;23688;33.130;-117.188;2022-10-19T16:54:38;3.20;;;1.00;;
37847;SDS011;23688;33.130;-117.188;2022-10-19T16:57:05;7.28;;;0.98;;
37847;SDS011;23688;33.130;-117.188;2022-10-19T16:59:31;7.32;;;1.45;;
37847;SDS011;23688;33.130;-117.188;2022-10-19T17:01:57;5.78;;;0.73;;
37847;SDS011;23688;33.130;-117.188;2022-10-19T17:04:23;2.25;;;0.90;;
37847;SDS011;23688;33.130;-117.188;2022-10-19T17:06:50;6.53;;;1.15;;
37847;SDS011;23688;33.130;-117.188;2022-10-19T17:09:16;1.35;;;0.40;;
37847;SDS011;23688;33.130;-117.188;2022-10-19T17:11:42;8.25;;;0.90;;
37847;SDS011;23688;33.130;-117.188;2022-10-19T17:14:10;7.78;;;1.38;;
37847;SDS011;23688;33.130;-117.188;2022-10-19T17:16:37;2.45;;;0.73;;